DW6228 Weather Reports


Display with metric or nautical units.
time (UTC)temp
F
wind
direction
speed
MPH
gust
MPH
rain 1hr
in
rain 24hr
in
rain mn
in
humidity
%
barometer
mb
20180919063849 50 221 7.0 14.0 0.00 0.10 0.09 65 1016.9
20180919062813 50 218 9.0 15.0 0.00 0.12 0.09 65 1016.8
20180919061811 50 270 8.0 20.0 0.00 0.12 0.09 63 1016.7
20180919060818 49 242 13.0 20.0 0.00 0.12 0.09 62 1016.7
20180919055815 50 247 8.0 19.0 0.00 0.12 0.09 63 1016.6
20180919054808 50 231 11.0 16.0 0.00 0.12 0.09 65 1016.4
20180919053804 50 192 8.0 16.0 0.00 0.12 0.09 68 1016.3
20180919052751 49 233 8.0 15.0 0.00 0.12 0.09 72 1016.2
20180919051723 50 251 7.0 16.0 0.00 0.12 0.09 73 1016.2
20180919050719 49 245 10.0 17.0 0.00 0.12 0.09 73 1016.1
20180919045723 48 253 9.0 20.0 0.00 0.12 0.09 73 1016.2
20180919044745 48 240 12.0 20.0 0.00 0.12 0.09 74 1016.2
20180919043711 47 250 7.0 15.0 0.00 0.12 0.09 77 1016.1
20180919042708 45 209 5.0 21.0 0.03 0.12 0.09 87 1016.2
20180919041712 44 209 10.0 21.0 0.27 0.11 0.09 82 1016.2
20180919040643 48 258 7.0 16.0 0.00 0.10 0.07 81 1016.1
20180919035628 47 229 6.0 15.0 0.00 0.10 0.07 85 1016.1
20180919034621 46 273 7.0 15.0 0.00 0.10 0.07 84 1016.0
20180919033559 45 264 6.0 11.0 0.00 0.10 0.07 87 1016.0
20180919032543 44 241 7.0 25.0 0.04 0.10 0.07 87 1016.0
20180919031513 43 242 15.0 25.0 0.19 0.09 0.06 82 1016.1
20180919030516 47 251 13.0 22.0 0.00 0.07 0.03 78 1016.0
20180919025440 49 266 9.0 20.0 0.00 0.07 0.03 69 1015.7
20180919024457 49 265 10.0 20.0 0.00 0.07 0.03 67 1015.7
20180919023427 48 254 10.0 19.0 0.00 0.07 0.03 70 1015.5
20180919022416 48 270 11.0 21.0 0.00 0.07 0.03 71 1015.5
20180919021416 48 237 14.0 23.0 0.00 0.07 0.03 71 1015.5
20180919020351 47 244 12.0 23.0 0.00 0.07 0.03 74 1015.4
20180919015340 47 232 10.0 23.0 0.00 0.07 0.03 76 1015.4
20180919014341 47 255 9.0 16.0 0.00 0.07 0.03 79 1015.5
20180919013315 47 296 9.0 16.0 0.00 0.07 0.03 82 1015.4
20180919012259 46 250 8.0 16.0 0.00 0.07 0.03 87 1015.4
20180919011258 46 266 7.0 16.0 0.00 0.07 0.03 87 1015.3
20180919010312 46 263 9.0 16.0 0.00 0.07 0.03 86 1015.4
20180919005319 45 264 8.0 19.0 0.00 0.07 0.03 85 1015.2
20180919004305 45 251 10.0 19.0 0.00 0.07 0.03 86 1015.2
20180919003302 45 266 9.0 17.0 0.00 0.07 0.03 86 1015.0
20180919002308 44 219 9.0 17.0 0.00 0.07 0.03 86 1014.9
20180919001302 44 275 11.0 18.0 0.00 0.07 0.03 85 1014.9
20180919000237 43 301 9.0 18.0 0.00 0.07 0.03 87 1014.9
20180918235226 43 241 10.0 15.0 0.00 0.07 0.03 90 1014.8
20180918234207 43 240 10.0 16.0 0.00 0.07 0.03 92 1014.6
20180918233152 42 275 9.0 16.0 0.00 0.07 0.03 95 1014.7
20180918232152 41 231 10.0 21.0 0.00 0.07 0.03 95 1014.6
20180918231139 41 263 10.0 21.0 0.00 0.07 0.03 96 1014.5
20180918230145 40 282 9.0 15.0 0.00 0.07 0.03 97 1014.4
20180918225142 40 269 8.0 15.0 0.00 0.07 0.03 97 1014.4
20180918224122 40 242 8.0 17.0 0.00 0.07 0.03 97 1014.4
20180918223055 40 252 9.0 17.0 0.00 0.07 0.03 97 1014.2
20180918222024 39 251 9.0 15.0 0.00 0.07 0.03 97 1014.0
20180918221022 39 250 8.0 15.0 0.00 0.07 0.03 97 1013.9
20180918215946 38 263 9.0 14.0 0.00 0.07 0.03 97 1013.7
20180918214944 38 257 8.0 15.0 0.00 0.07 0.03 97 1013.7
20180918213934 38 273 8.0 15.0 0.00 0.07 0.03 97 1013.4
20180918212945 38 273 8.0 15.0 0.00 0.07 0.03 97 1013.4
20180918211935 38 281 7.0 14.0 0.00 0.07 0.03 97 1013.1
20180918210949 38 265 6.0 11.0 0.00 0.07 0.03 97 1012.8
20180918205929 38 289 5.0 14.0 0.00 0.07 0.03 97 1012.7
20180918204943 37 272 7.0 14.0 0.00 0.07 0.03 96 1012.6
20180918203916 37 232 7.0 13.0 0.00 0.07 0.03 96 1012.4
20180918202842 37 281 8.0 15.0 0.00 0.07 0.03 96 1012.1
20180918201807 37 236 10.0 20.0 0.00 0.07 0.03 96 1012.0
20180918200734 38 251 10.0 20.0 0.00 0.06 0.03 96 1012.0
20180918195743 38 238 9.0 16.0 0.00 0.06 0.03 96 1012.0
20180918194755 38 255 8.0 16.0 0.00 0.06 0.03 96 1011.8
20180918193729 38 263 8.0 14.0 0.00 0.06 0.03 96 1011.5
20180918192702 38 263 8.0 14.0 0.00 0.06 0.03 95 1011.1
20180918191628 38 264 9.0 20.0 0.00 0.06 0.03 95 1011.0
20180918190638 38 258 10.0 20.0 0.00 0.06 0.03 95 1010.7
20180918185606 38 253 8.0 16.0 0.00 0.06 0.03 95 1010.7
20180918184621 38 265 8.0 15.0 0.00 0.06 0.03 95 1010.7
20180918183608 38 268 8.0 18.0 0.00 0.06 0.03 96 1010.7
20180918182604 38 245 10.0 18.0 0.00 0.06 0.03 96 1010.6
20180918181613 38 243 9.0 16.0 0.00 0.06 0.03 96 1010.5
20180918180610 39 264 8.0 15.0 0.00 0.06 0.03 96 1010.2
20180918175536 39 247 7.0 14.0 0.00 0.06 0.03 97 1010.0
20180918174546 40 255 8.0 17.0 0.00 0.06 0.03 97 1009.7
20180918173705 40 270 10.0 19.0 0.00 0.06 0.03 97 1009.5
20180918171513 40 266 12.0 18.0 0.00 0.06 0.03 97 1009.7
20180918170522 40 263 10.0 18.0 0.00 0.06 0.03 96 1009.8
20180918165451 40 295 9.0 16.0 0.00 0.06 0.03 96 1009.9
20180918164441 40 240 9.0 17.0 0.00 0.06 0.03 96 1009.9
20180918163451 40 299 10.0 17.0 0.00 0.06 0.03 96 1010.0
20180918162509 41 290 10.0 18.0 0.00 0.06 0.03 96 1010.1
20180918161514 41 302 10.0 19.0 0.00 0.06 0.03 96 1010.1
20180918160528 41 276 10.0 19.0 0.00 0.06 0.03 96 1010.2
20180918155532 41 285 9.0 18.0 0.00 0.06 0.03 96 1010.3
20180918154506 41 292 9.0 17.0 0.00 0.06 0.03 96 1010.4
20180918153529 41 268 8.0 15.0 0.00 0.06 0.03 96 1010.4
20180918152548 42 292 7.0 13.0 0.00 0.06 0.03 96 1010.5
20180918151608 42 262 7.0 13.0 0.03 0.06 0.03 96 1010.6
20180918150550 42 266 7.0 15.0 0.10 0.06 0.03 95 1010.9
20180918145612 42 273 8.0 15.0 0.00 0.04 0.01 95 1010.9
20180918144537 42 251 8.0 14.0 0.00 0.04 0.01 95 1011.1
20180918143500 42 278 8.0 13.0 0.06 0.04 0.01 94 1011.1
20180918142522 42 263 7.0 15.0 0.00 0.03 0.00 94 1011.0
20180918141528 42 273 8.0 15.0 0.00 0.03 0.00 95 1011.1
20180918140459 41 297 6.0 15.0 0.00 0.03 0.03 95 1011.2
20180918135521 41 307 6.0 13.0 0.00 0.03 0.03 95 1011.2
20180918134512 41 301 6.0 13.0 0.00 0.03 0.03 94 1011.2
20180918133457 42 273 6.0 13.0 0.00 0.03 0.03 94 1011.2
20180918132512 42 294 7.0 13.0 0.00 0.03 0.03 94 1011.3
20180918131525 42 284 6.0 11.0 0.00 0.03 0.03 94 1011.4
20180918130507 42 301 6.0 13.0 0.00 0.03 0.03 94 1011.3
20180918125524 42 277 6.0 14.0 0.00 0.03 0.03 94 1011.3
20180918124453 42 287 7.0 14.0 0.00 0.03 0.03 93 1011.1
20180918123510 43 297 7.0 14.0 0.00 0.03 0.03 93 1011.1
20180918122455 43 270 7.0 14.0 0.00 0.03 0.03 93 1011.0
20180918121505 43 273 7.0 13.0 0.00 0.03 0.03 93 1011.0
20180918120435 43 288 6.0 11.0 0.00 0.03 0.03 93 1010.9
20180918115413 43 249 6.0 10.0 0.00 0.03 0.03 93 1011.0
20180918114414 43 281 6.0 12.0 0.00 0.03 0.03 92 1011.0
20180918113407 43 290 6.0 15.0 0.00 0.03 0.03 92 1010.9
20180918112334 43 254 8.0 15.0 0.00 0.03 0.03 92 1010.7
20180918111341 43 290 7.0 12.0 0.00 0.03 0.03 92 1010.8
20180918110325 43 271 7.0 13.0 0.00 0.03 0.03 91 1010.6
20180918105335 43 266 7.0 13.0 0.00 0.03 0.03 90 1010.5
20180918104313 44 248 8.0 15.0 0.00 0.03 0.03 90 1010.7
20180918103251 44 281 9.0 15.0 0.00 0.03 0.03 89 1010.8
20180918102229 44 268 8.0 13.0 0.00 0.03 0.03 89 1010.9
20180918101229 44 263 6.0 11.0 0.00 0.03 0.03 89 1010.8
20180918100234 44 278 6.0 11.0 0.00 0.03 0.03 89 1010.8
20180918095208 44 253 7.0 15.0 0.00 0.03 0.03 88 1010.7
20180918094203 44 270 8.0 15.0 0.00 0.03 0.03 87 1010.5
20180918093213 44 267 7.0 16.0 0.00 0.03 0.03 87 1010.3
20180918092226 45 261 10.0 17.0 0.00 0.03 0.03 87 1010.2
20180918091153 45 287 10.0 19.0 0.00 0.03 0.03 89 1010.2
20180918085116 45 249 11.0 20.0 0.00 0.03 0.03 91 1010.1
20180918084052 45 248 10.0 19.0 0.00 0.03 0.03 91 1010.2
20180918083042 45 256 10.0 20.0 0.00 0.03 0.03 90 1010.0
20180918082047 46 268 11.0 22.0 0.00 0.03 0.03 89 1009.9
20180918081030 47 237 13.0 28.0 0.00 0.03 0.03 87 1009.8
20180918080032 47 229 14.0 28.0 0.00 0.03 0.03 85 1009.7
20180918075006 48 239 12.0 23.0 0.00 0.03 0.03 83 1009.8
20180918074029 49 259 12.0 24.0 0.00 0.03 0.03 82 1009.7
20180918073025 49 241 13.0 24.0 0.00 0.03 0.03 81 1009.5
20180918072003 50 247 10.0 20.0 0.00 0.03 0.03 80 1009.1
20180918070931 50 230 7.0 16.0 0.00 0.03 0.03 82 1008.8
20180918065903 50 321 8.0 16.0 0.00 0.03 0.03 82 1008.7
20180918064841 49 276 8.0 22.0 0.06 0.03 0.03 84 1008.6